createdAt,value
2019-06-08T00:01:06.338Z,1.00
2019-06-08T00:03:32.498Z,0.95
2019-06-08T00:05:58.666Z,1.27
2019-06-08T00:08:25.297Z,1.12
2019-06-08T00:10:51.486Z,0.98
2019-06-08T00:13:17.665Z,1.20
2019-06-08T00:15:43.892Z,1.42
2019-06-08T00:18:10.075Z,1.30
2019-06-08T00:20:36.336Z,1.12
2019-06-08T00:23:02.863Z,1.20
2019-06-08T00:25:30.021Z,1.27
2019-06-08T00:27:56.193Z,1.00
2019-06-08T00:30:22.488Z,1.12
2019-06-08T00:32:48.665Z,1.20
2019-06-08T00:35:14.839Z,1.12
2019-06-08T00:37:41.045Z,0.93
2019-06-08T00:40:08.394Z,1.20
2019-06-08T00:42:34.612Z,1.20
2019-06-08T00:45:00.767Z,1.20
2019-06-08T00:47:42.046Z,1.30
2019-06-08T00:49:55.276Z,1.20
2019-06-08T00:52:21.445Z,1.27
2019-06-08T00:54:47.724Z,1.20
2019-06-08T00:57:13.898Z,1.40
2019-06-08T00:59:40.078Z,1.35
2019-06-08T01:02:06.269Z,1.42
2019-06-08T01:04:32.529Z,1.50
2019-06-08T01:06:58.697Z,1.10
2019-06-08T01:09:24.874Z,1.25
2019-06-08T01:11:51.105Z,1.30
2019-06-08T01:14:18.822Z,1.30
2019-06-08T01:16:45.160Z,1.30
2019-06-08T01:19:11.315Z,1.12
2019-06-08T01:21:37.497Z,1.30
2019-06-08T01:24:03.765Z,1.17
2019-06-08T01:26:30.209Z,1.25
2019-06-08T01:28:56.543Z,1.52
2019-06-08T01:31:22.735Z,0.80
2019-06-08T01:33:48.941Z,1.10
2019-06-08T01:36:15.101Z,1.05
2019-06-08T01:38:41.262Z,1.05
2019-06-08T01:41:07.433Z,1.00
2019-06-08T01:43:33.663Z,0.93
2019-06-08T01:45:59.839Z,1.00
2019-06-08T01:48:26.323Z,0.70
2019-06-08T01:50:52.633Z,0.75
2019-06-08T01:53:18.885Z,0.85
2019-06-08T01:55:45.041Z,0.80
2019-06-08T01:58:11.209Z,0.70
2019-06-08T02:00:41.112Z,0.60
2019-06-08T02:03:05.689Z,0.80
2019-06-08T02:05:32.506Z,0.68
2019-06-08T02:07:59.587Z,0.60
2019-06-08T02:10:26.662Z,0.75
2019-06-08T02:12:52.951Z,1.05
2019-06-08T02:15:19.432Z,0.90
2019-06-08T02:17:45.600Z,0.53
2019-06-08T02:20:12.193Z,0.68
2019-06-08T02:22:39.388Z,0.50
2019-06-08T02:25:06.433Z,0.90
2019-06-08T02:27:33.577Z,1.00
2019-06-08T02:30:00.061Z,0.80
2019-06-08T02:32:28.383Z,0.82
2019-06-08T02:34:54.625Z,0.60
2019-06-08T02:37:20.860Z,0.78
2019-06-08T02:39:47.092Z,0.78
2019-06-08T02:42:13.269Z,0.70
2019-06-08T02:44:40.580Z,0.80
2019-06-08T02:47:07.109Z,0.68
2019-06-08T02:49:33.329Z,0.72
2019-06-08T02:51:59.891Z,0.80
2019-06-08T02:54:27.088Z,0.60
2019-06-08T02:56:53.954Z,0.60
2019-06-08T02:59:21.421Z,0.80
2019-06-08T03:01:49.493Z,0.80
2019-06-08T03:04:15.976Z,0.93
2019-06-08T03:06:44.161Z,0.45
2019-06-08T03:09:10.326Z,1.07
2019-06-08T03:11:37.027Z,0.75
2019-06-08T03:14:04.221Z,0.60
2019-06-08T03:16:31.236Z,1.00
2019-06-08T03:18:57.667Z,0.88
2019-06-08T03:21:23.856Z,0.95
2019-06-08T03:23:50.014Z,0.82
2019-06-08T03:26:16.312Z,0.70
2019-06-08T03:28:44.259Z,0.70
2019-06-08T03:31:10.558Z,0.90
2019-06-08T03:33:43.226Z,0.78
2019-06-08T03:36:04.878Z,0.90
2019-06-08T03:38:31.114Z,0.70
2019-06-08T03:40:57.300Z,0.70
2019-06-08T03:43:23.470Z,0.90
2019-06-08T03:45:50.891Z,0.80
2019-06-08T03:48:17.036Z,0.50
2019-06-08T03:50:44.438Z,0.57
2019-06-08T03:53:11.316Z,0.88
2019-06-08T03:55:38.025Z,0.90
2019-06-08T03:58:04.840Z,0.90
2019-06-08T04:00:31.037Z,1.07
2019-06-08T04:02:57.198Z,0.70
2019-06-08T04:05:23.421Z,0.70
2019-06-08T04:07:50.441Z,0.60
2019-06-08T04:10:17.575Z,0.70
2019-06-08T04:12:44.261Z,0.80
2019-06-08T04:15:11.432Z,0.88
2019-06-08T04:17:37.911Z,0.70
2019-06-08T04:20:11.061Z,0.90
2019-06-08T04:22:37.961Z,0.80
2019-06-08T04:25:05.560Z,0.80
2019-06-08T04:27:31.762Z,0.90
2019-06-08T04:29:57.921Z,0.72
2019-06-08T04:32:24.182Z,0.80
2019-06-08T04:34:50.358Z,0.93
2019-06-08T04:37:16.733Z,0.90
2019-06-08T04:39:44.446Z,0.90
2019-06-08T04:42:10.877Z,0.80
2019-06-08T04:44:38.495Z,0.68
2019-06-08T04:47:04.763Z,1.00
2019-06-08T04:49:30.995Z,0.75
2019-06-08T04:51:57.312Z,1.12
2019-06-08T04:54:23.547Z,0.78
2019-06-08T04:56:49.785Z,0.85
2019-06-08T04:59:16.191Z,0.80
2019-06-08T05:01:43.077Z,0.70
2019-06-08T05:04:09.318Z,0.72
2019-06-08T05:06:35.505Z,0.60
2019-06-08T05:09:02.699Z,0.80
2019-06-08T05:11:29.452Z,0.80
2019-06-08T05:13:55.630Z,1.20
2019-06-08T05:16:21.825Z,0.70
2019-06-08T05:18:49.455Z,0.90
2019-06-08T05:21:16.098Z,0.90
2019-06-08T05:23:43.387Z,1.10
2019-06-08T05:26:09.711Z,0.80
2019-06-08T05:28:35.892Z,0.80
2019-06-08T05:31:02.120Z,0.70
2019-06-08T05:33:28.278Z,0.82
2019-06-08T05:35:54.466Z,0.90
2019-06-08T05:38:20.666Z,1.10
2019-06-08T05:40:47.700Z,0.75
2019-06-08T05:43:14.111Z,0.82
2019-06-08T05:45:41.507Z,0.75
2019-06-08T05:48:07.902Z,0.75
2019-06-08T05:50:34.131Z,0.90
2019-06-08T05:53:00.386Z,0.90
2019-06-08T05:55:26.703Z,1.00
2019-06-08T05:57:53.148Z,1.00
2019-06-08T06:00:19.929Z,0.88
2019-06-08T06:02:47.010Z,0.78
2019-06-08T06:05:13.646Z,0.72
2019-06-08T06:07:40.567Z,0.95
2019-06-08T06:10:07.291Z,0.80
2019-06-08T06:12:33.504Z,1.00
2019-06-08T06:14:59.864Z,0.90
2019-06-08T06:17:26.081Z,1.10
2019-06-08T06:19:52.308Z,0.90
2019-06-08T06:22:18.501Z,0.82
2019-06-08T06:24:45.718Z,1.27
2019-06-08T06:27:11.977Z,0.70
2019-06-08T06:29:38.145Z,0.75
2019-06-08T06:32:07.093Z,0.88
2019-06-08T06:34:33.353Z,0.90
2019-06-08T06:36:59.533Z,0.80
2019-06-08T06:39:25.736Z,0.80
2019-06-08T06:41:52.189Z,1.00
2019-06-08T06:44:18.573Z,0.88
2019-06-08T06:46:46.091Z,0.80
2019-06-08T06:49:12.414Z,0.80
2019-06-08T06:51:38.975Z,1.00
2019-06-08T06:54:05.269Z,0.70
2019-06-08T06:56:31.453Z,1.02
2019-06-08T06:58:57.741Z,1.00
2019-06-08T07:01:23.921Z,0.82
2019-06-08T07:03:50.172Z,1.05
2019-06-08T07:06:16.510Z,1.20
2019-06-08T07:08:44.016Z,0.88
2019-06-08T07:11:10.347Z,0.90
2019-06-08T07:13:36.558Z,0.80
2019-06-08T07:16:17.370Z,0.88
2019-06-08T07:18:30.793Z,0.93
2019-06-08T07:20:56.993Z,1.12
2019-06-08T07:23:23.140Z,1.00
2019-06-08T07:25:50.426Z,0.90
2019-06-08T07:28:16.900Z,0.68
2019-06-08T07:30:43.131Z,1.00
2019-06-08T07:33:09.313Z,1.10
2019-06-08T07:35:35.483Z,0.80
2019-06-08T07:38:01.750Z,1.00
2019-06-08T07:40:27.972Z,0.82
2019-06-08T07:42:55.263Z,1.10
2019-06-08T07:45:22.305Z,0.88
2019-06-08T07:47:49.851Z,0.80
2019-06-08T07:50:17.042Z,0.90
2019-06-08T07:52:43.288Z,0.90
2019-06-08T07:55:09.812Z,1.10
2019-06-08T07:57:36.016Z,1.07
2019-06-08T08:00:09.228Z,0.90
2019-06-08T08:02:33.145Z,0.85
2019-06-08T08:04:59.332Z,1.00
2019-06-08T08:07:25.617Z,1.00
2019-06-08T08:09:53.155Z,0.90
2019-06-08T08:12:19.454Z,1.10
2019-06-08T08:14:45.697Z,0.82
2019-06-08T08:17:11.948Z,1.00
2019-06-08T08:19:38.100Z,1.15
2019-06-08T08:22:19.517Z,1.40
2019-06-08T08:24:32.388Z,1.17
2019-06-08T08:27:03.136Z,1.10
2019-06-08T08:29:28.254Z,1.30
2019-06-08T08:31:55.527Z,1.07
2019-06-08T08:34:21.848Z,1.00
2019-06-08T08:36:49.462Z,1.10
2019-06-08T08:39:17.675Z,1.50
2019-06-08T08:41:44.102Z,1.20
2019-06-08T08:44:10.285Z,0.93
2019-06-08T08:46:38.674Z,1.35
2019-06-08T08:49:09.307Z,1.40
2019-06-08T08:51:32.705Z,1.10
2019-06-08T08:54:04.745Z,1.10
2019-06-08T08:56:28.011Z,1.25
2019-06-08T08:58:54.453Z,1.30
2019-06-08T09:01:20.782Z,0.85
2019-06-08T09:03:48.242Z,1.35
2019-06-08T09:06:15.044Z,1.27
2019-06-08T09:08:41.494Z,1.00
2019-06-08T09:11:08.168Z,1.10
2019-06-08T09:13:34.554Z,1.10
2019-06-08T09:16:03.426Z,1.10
2019-06-08T09:18:28.862Z,1.32
2019-06-08T09:20:58.250Z,1.07
2019-06-08T09:23:23.209Z,1.20
2019-06-08T09:25:49.390Z,1.15
2019-06-08T09:28:15.596Z,0.98
2019-06-08T09:30:41.785Z,1.07
2019-06-08T09:33:08.148Z,1.35
2019-06-08T09:35:34.489Z,1.60
2019-06-08T09:38:03.089Z,1.30
2019-06-08T09:40:32.370Z,1.62
2019-06-08T09:43:04.114Z,1.45
2019-06-08T09:45:24.933Z,1.57
2019-06-08T09:47:51.402Z,1.30
2019-06-08T09:50:18.511Z,1.52
2019-06-08T09:52:47.714Z,1.70
2019-06-08T09:55:13.977Z,1.45
2019-06-08T09:57:40.157Z,1.47
2019-06-08T10:00:15.272Z,1.75
2019-06-08T10:02:36.059Z,1.50
2019-06-08T10:05:04.520Z,1.20
2019-06-08T10:07:32.049Z,1.30
2019-06-08T10:10:00.300Z,1.30
2019-06-08T10:12:28.189Z,1.22
2019-06-08T10:14:54.597Z,1.25
2019-06-08T10:17:21.274Z,1.25
2019-06-08T10:19:47.739Z,1.30
2019-06-08T10:22:14.165Z,1.50
2019-06-08T10:24:41.481Z,1.30
2019-06-08T10:27:11.034Z,1.10
2019-06-08T10:29:38.165Z,1.62
2019-06-08T10:32:06.396Z,1.70
2019-06-08T10:34:33.733Z,1.32
2019-06-08T10:37:04.891Z,1.20
2019-06-08T10:39:28.419Z,1.47
2019-06-08T10:41:57.618Z,1.55
2019-06-08T10:44:23.714Z,1.20
2019-06-08T10:46:49.881Z,1.40
2019-06-08T10:49:18.411Z,1.20
2019-06-08T10:51:44.181Z,1.10
2019-06-08T10:54:11.455Z,1.40
2019-06-08T10:56:38.559Z,1.10
2019-06-08T10:59:09.499Z,1.30
2019-06-08T11:01:33.084Z,1.40
2019-06-08T11:04:00.357Z,1.35
2019-06-08T11:06:27.362Z,3.58
2019-06-08T11:08:53.606Z,1.70
2019-06-08T11:11:20.554Z,5.08
2019-06-08T11:13:50.219Z,1.75
2019-06-08T11:16:17.678Z,1.50
2019-06-08T11:18:43.133Z,7.20
2019-06-08T11:21:12.524Z,3.10
2019-06-08T11:23:38.485Z,2.00
2019-06-08T11:26:13.792Z,1.82
2019-06-08T11:28:33.689Z,1.10
2019-06-08T11:30:59.948Z,1.17
2019-06-08T11:33:30.277Z,1.35
2019-06-08T11:35:54.217Z,1.27
2019-06-08T11:38:20.668Z,1.25
2019-06-08T11:40:47.821Z,1.10
2019-06-08T11:43:14.243Z,1.37
2019-06-08T11:45:40.429Z,1.32
2019-06-08T11:48:06.610Z,1.15
2019-06-08T11:50:35.401Z,1.37
2019-06-08T11:53:04.008Z,1.30
2019-06-08T11:55:30.842Z,1.12
2019-06-08T11:57:58.603Z,1.20
2019-06-08T12:00:48.776Z,1.30
2019-06-08T12:03:14.428Z,1.25
2019-06-08T12:05:40.722Z,1.22
2019-06-08T12:08:08.229Z,1.05
2019-06-08T12:10:35.580Z,1.42
2019-06-08T12:13:04.690Z,1.25
2019-06-08T12:15:30.985Z,1.20
2019-06-08T12:17:58.716Z,1.35
2019-06-08T12:20:25.038Z,1.20
2019-06-08T12:22:51.302Z,0.90
2019-06-08T12:25:17.550Z,1.00
2019-06-08T12:27:43.771Z,1.30
2019-06-08T12:30:17.382Z,1.35
2019-06-08T12:32:38.437Z,1.10
2019-06-08T12:35:05.174Z,1.20
2019-06-08T12:37:31.525Z,0.95
2019-06-08T12:39:57.931Z,1.20
2019-06-08T12:42:25.839Z,1.00
2019-06-08T12:44:52.027Z,1.07
2019-06-08T12:47:25.834Z,1.10
2019-06-08T12:49:48.430Z,1.17
2019-06-08T12:52:15.776Z,1.12
2019-06-08T12:54:56.595Z,1.20
2019-06-08T12:57:13.755Z,1.20
2019-06-08T12:59:38.688Z,1.27
2019-06-08T13:02:04.961Z,1.10
2019-06-08T13:04:31.157Z,1.02
2019-06-08T13:06:58.424Z,1.40
2019-06-08T13:09:25.051Z,1.32
2019-06-08T13:11:51.378Z,1.30
2019-06-08T13:14:19.444Z,1.17
2019-06-08T13:16:45.660Z,1.30
2019-06-08T13:19:13.074Z,1.40
2019-06-08T13:21:39.914Z,1.10
2019-06-08T13:24:08.375Z,0.95
2019-06-08T13:26:34.401Z,1.20
2019-06-08T13:29:00.811Z,1.32
2019-06-08T13:31:28.705Z,1.05
2019-06-08T13:33:55.081Z,1.00
2019-06-08T13:36:26.046Z,1.10
2019-06-08T13:38:49.714Z,1.00
2019-06-08T13:41:19.390Z,1.17
2019-06-08T13:43:43.996Z,1.30
2019-06-08T13:46:11.668Z,1.20
2019-06-08T13:48:37.978Z,1.52
2019-06-08T13:51:04.156Z,0.98
2019-06-08T13:53:31.889Z,1.07
2019-06-08T13:55:58.307Z,1.00
2019-06-08T13:58:31.624Z,1.35
2019-06-08T14:00:56.452Z,1.40
2019-06-08T14:03:23.296Z,1.32
2019-06-08T14:05:51.648Z,1.50
2019-06-08T14:08:20.664Z,1.35
2019-06-08T14:10:48.136Z,1.20
2019-06-08T14:13:15.147Z,1.10
2019-06-08T14:15:41.446Z,1.22
2019-06-08T14:18:08.886Z,1.32
2019-06-08T14:20:38.942Z,1.52
2019-06-08T14:23:05.261Z,1.10
2019-06-08T14:25:46.899Z,1.00
2019-06-08T14:27:59.578Z,1.30
2019-06-08T14:30:30.991Z,1.27
2019-06-08T14:32:54.623Z,1.17
2019-06-08T14:35:25.362Z,1.37
2019-06-08T14:37:52.077Z,1.72
2019-06-08T14:40:19.359Z,1.27
2019-06-08T14:42:48.342Z,1.45
2019-06-08T14:45:17.775Z,1.20
2019-06-08T14:47:58.763Z,1.67
2019-06-08T14:50:25.137Z,1.32
2019-06-08T14:52:52.420Z,1.20
2019-06-08T14:55:20.646Z,1.35
2019-06-08T14:57:48.177Z,1.22
2019-06-08T15:00:20.491Z,1.45
2019-06-08T15:02:49.684Z,1.87
2019-06-08T15:05:14.501Z,1.60
2019-06-08T15:07:40.723Z,1.12
2019-06-08T15:10:09.755Z,1.20
2019-06-08T15:12:35.192Z,1.50
2019-06-08T15:15:01.370Z,1.20
2019-06-08T15:17:28.979Z,1.30
2019-06-08T15:19:55.672Z,1.80
2019-06-08T15:22:22.288Z,2.35
2019-06-08T15:24:48.639Z,1.32
2019-06-08T15:27:14.825Z,1.30
2019-06-08T15:29:41.013Z,1.70
2019-06-08T15:32:08.176Z,1.45
2019-06-08T15:34:34.537Z,1.47
2019-06-08T15:37:00.714Z,1.57
2019-06-08T15:39:30.371Z,1.20
2019-06-08T15:41:55.178Z,1.40
2019-06-08T15:44:23.120Z,1.67
2019-06-08T15:46:49.438Z,1.45
2019-06-08T15:49:15.620Z,7.58
2019-06-08T15:51:41.800Z,1.70
2019-06-08T15:54:08.166Z,1.62
2019-06-08T15:56:47.507Z,1.30
2019-06-08T15:59:03.051Z,1.40
2019-06-08T16:01:31.449Z,1.47
2019-06-08T16:03:57.821Z,1.57
2019-06-08T16:06:24.211Z,0.93
2019-06-08T16:08:50.814Z,1.60
2019-06-08T16:11:17.008Z,1.70
2019-06-08T16:13:43.216Z,1.32
2019-06-08T16:16:09.382Z,1.60
2019-06-08T16:18:36.602Z,2.90
2019-06-08T16:21:02.870Z,3.60
2019-06-08T16:23:29.878Z,3.25
2019-06-08T16:25:56.480Z,2.00
2019-06-08T16:28:22.675Z,2.10
2019-06-08T16:30:48.860Z,2.10
2019-06-08T16:33:15.043Z,1.60
2019-06-08T16:35:41.344Z,1.50
2019-06-08T16:38:07.524Z,1.80
2019-06-08T16:40:34.290Z,1.82
2019-06-08T16:43:00.592Z,2.10
2019-06-08T16:45:27.023Z,1.57
2019-06-08T16:47:53.252Z,1.90
2019-06-08T16:50:24.457Z,1.52
2019-06-08T16:52:47.557Z,1.40
2019-06-08T16:55:13.832Z,1.60
2019-06-08T16:57:41.234Z,1.30
2019-06-08T17:02:37.175Z,1.80
2019-06-08T17:05:06.619Z,1.57
2019-06-08T17:07:33.701Z,1.70
2019-06-08T17:10:00.025Z,1.80
2019-06-08T17:12:26.239Z,1.40
2019-06-08T17:14:52.490Z,1.55
2019-06-08T17:17:18.787Z,1.32
2019-06-08T17:19:44.949Z,1.62
2019-06-08T17:22:12.256Z,1.55
2019-06-08T17:24:38.936Z,1.80
2019-06-08T17:27:05.286Z,1.40
2019-06-08T17:29:32.711Z,1.60
2019-06-08T17:31:59.119Z,1.60
2019-06-08T17:34:25.273Z,1.37
2019-06-08T17:36:51.523Z,1.60
2019-06-08T17:39:17.857Z,1.37
2019-06-08T17:41:44.050Z,1.40
2019-06-08T17:44:10.426Z,1.90
2019-06-08T17:46:36.616Z,1.50
2019-06-08T17:49:02.836Z,1.60
2019-06-08T17:51:29.000Z,1.77
2019-06-08T17:53:55.194Z,1.87
2019-06-08T17:56:21.358Z,1.70
2019-06-08T17:58:47.676Z,1.70
2019-06-08T18:01:13.977Z,1.92
2019-06-08T18:03:41.463Z,2.55
2019-06-08T18:06:08.317Z,1.77
2019-06-08T18:08:36.759Z,1.52
2019-06-08T18:11:02.670Z,1.50
2019-06-08T18:13:28.833Z,1.62
2019-06-08T18:15:57.462Z,1.67
2019-06-08T18:18:24.209Z,1.60
2019-06-08T18:20:52.248Z,1.70
2019-06-08T18:23:18.497Z,1.62
2019-06-08T18:25:47.245Z,1.70
2019-06-08T18:28:13.682Z,2.00
2019-06-08T18:30:43.103Z,2.08
2019-06-08T18:33:08.146Z,2.08
2019-06-08T18:35:35.702Z,1.47
2019-06-08T18:38:02.502Z,1.75
2019-06-08T18:40:28.698Z,1.85
2019-06-08T18:42:57.487Z,1.87
2019-06-08T18:45:23.542Z,2.08
2019-06-08T18:47:49.729Z,2.05
2019-06-08T18:50:17.350Z,1.80
2019-06-08T18:52:45.352Z,1.98
2019-06-08T18:55:12.677Z,1.82
2019-06-08T18:57:41.018Z,1.98
2019-06-08T19:00:09.126Z,1.87
2019-06-08T19:02:39.472Z,1.98
2019-06-08T19:05:04.777Z,1.87
2019-06-08T19:07:31.061Z,1.77
2019-06-08T19:09:58.730Z,2.17
2019-06-08T19:12:24.914Z,2.08
2019-06-08T19:14:52.267Z,1.85
2019-06-08T19:17:19.226Z,2.77
2019-06-08T19:19:48.447Z,2.90
2019-06-08T19:22:13.592Z,2.40
2019-06-08T19:24:43.632Z,1.67
2019-06-08T19:27:08.839Z,2.20
2019-06-08T19:29:35.036Z,2.25
2019-06-08T19:32:01.218Z,2.33
2019-06-08T19:34:29.036Z,2.08
2019-06-08T19:36:57.308Z,1.92
2019-06-08T19:39:23.512Z,2.20
2019-06-08T19:41:50.611Z,2.58
2019-06-08T19:44:18.361Z,2.40
2019-06-08T19:46:47.561Z,2.17
2019-06-08T19:49:13.136Z,2.35
2019-06-08T19:51:40.267Z,2.12
2019-06-08T19:54:07.467Z,2.12
2019-06-08T19:56:33.655Z,2.20
2019-06-08T19:59:04.667Z,2.47
2019-06-08T20:01:28.398Z,2.77
2019-06-08T20:03:54.706Z,2.52
2019-06-08T20:06:20.980Z,2.22
2019-06-08T20:08:49.946Z,2.20
2019-06-08T20:11:17.311Z,2.25
2019-06-08T20:13:43.592Z,2.50
2019-06-08T20:16:09.773Z,2.45
2019-06-08T20:18:37.503Z,2.25
2019-06-08T20:21:03.830Z,2.17
2019-06-08T20:23:30.021Z,2.55
2019-06-08T20:25:57.367Z,2.52
2019-06-08T20:28:24.253Z,2.58
2019-06-08T20:30:50.684Z,2.30
2019-06-08T20:33:16.877Z,2.45
2019-06-08T20:35:43.568Z,2.83
2019-06-08T20:38:09.765Z,2.45
2019-06-08T20:40:38.220Z,2.60
2019-06-08T20:43:04.062Z,2.27
2019-06-08T20:45:30.305Z,2.80
2019-06-08T20:47:58.552Z,2.70
2019-06-08T20:50:27.010Z,2.70
2019-06-08T20:52:53.813Z,2.83
2019-06-08T20:55:20.117Z,2.47
2019-06-08T20:57:49.055Z,2.83
2019-06-08T21:00:14.545Z,2.70
2019-06-08T21:02:40.727Z,2.27
2019-06-08T21:05:07.846Z,2.22
2019-06-08T21:07:34.219Z,2.60
2019-06-08T21:10:00.456Z,2.60
2019-06-08T21:12:28.313Z,2.30
2019-06-08T21:14:55.517Z,2.70
2019-06-08T21:17:21.729Z,2.85
2019-06-08T21:19:48.828Z,2.60
2019-06-08T21:22:15.218Z,2.22
2019-06-08T21:24:41.497Z,2.22
2019-06-08T21:27:08.321Z,2.05
2019-06-08T21:29:47.677Z,2.45
2019-06-08T21:32:03.021Z,2.45
2019-06-08T21:34:29.413Z,2.62
2019-06-08T21:36:56.834Z,2.65
2019-06-08T21:39:24.429Z,2.40
2019-06-08T21:41:54.456Z,2.47
2019-06-08T21:44:18.724Z,2.47
2019-06-08T21:46:47.452Z,2.55
2019-06-08T21:49:13.090Z,2.50
2019-06-08T21:51:39.281Z,2.60
2019-06-08T21:54:07.108Z,2.52
2019-06-08T21:56:33.536Z,2.72
2019-06-08T21:59:01.094Z,2.92
2019-06-08T22:01:30.005Z,2.60
2019-06-08T22:03:58.499Z,2.90
2019-06-08T22:06:24.286Z,2.95
2019-06-08T22:08:50.478Z,2.87
2019-06-08T22:11:17.737Z,2.85
2019-06-08T22:13:44.016Z,2.47
2019-06-08T22:16:10.358Z,2.92
2019-06-08T22:18:38.086Z,2.60
2019-06-08T22:21:04.481Z,2.77
2019-06-08T22:23:30.650Z,2.98
2019-06-08T22:25:59.220Z,2.87
2019-06-08T22:28:26.999Z,2.80
2019-06-08T22:30:53.640Z,2.70
2019-06-08T22:33:19.876Z,3.17
2019-06-08T22:35:47.773Z,2.67
2019-06-08T22:38:14.149Z,2.80
2019-06-08T22:40:40.313Z,3.02
2019-06-08T22:43:08.128Z,2.90
2019-06-08T22:45:34.494Z,2.62
2019-06-08T22:48:02.143Z,2.55
2019-06-08T22:50:29.849Z,2.83
2019-06-08T22:52:59.322Z,3.12
2019-06-08T22:55:24.100Z,2.47
2019-06-08T22:57:50.401Z,2.92
2019-06-08T23:00:20.434Z,2.85
2019-06-08T23:02:45.136Z,2.58
2019-06-08T23:05:11.516Z,3.02
2019-06-08T23:07:37.779Z,2.60
2019-06-08T23:10:06.558Z,2.37
2019-06-08T23:12:33.511Z,2.77
2019-06-08T23:15:00.611Z,2.75
2019-06-08T23:17:28.106Z,2.50
2019-06-08T23:19:55.009Z,2.42
2019-06-08T23:22:21.765Z,2.47
2019-06-08T23:24:47.955Z,2.67
2019-06-08T23:27:14.120Z,2.37
2019-06-08T23:29:40.343Z,2.65
2019-06-08T23:32:11.115Z,2.80
2019-06-08T23:34:34.589Z,2.60
2019-06-08T23:37:05.569Z,2.72
2019-06-08T23:39:28.882Z,2.90
2019-06-08T23:41:55.040Z,3.05
2019-06-08T23:44:21.244Z,2.42
2019-06-08T23:46:47.762Z,2.65
2019-06-08T23:49:13.948Z,2.60
2019-06-08T23:51:40.146Z,2.60
2019-06-08T23:54:09.853Z,3.20
2019-06-08T23:56:34.388Z,2.75
2019-06-08T23:59:01.393Z,2.98
